Latest Coastal Weather Observations for Montague Island

IDN60701

Issued at 9:21 pm EDT Monday 5 December 2016 (issued every 10 minutes, with the page automatically refreshed every 10 minutes)

About coastal observations | Map of coastal stations | Coastal observations for NSW | Marine services | Other Formats
Station Details ID: 069017 Name: MONTAGUE ISLAND LIGHTHOUSE Lat: -36.25 Lon: 150.23 Height: 52.0 m
Data from the previous 72 hours. | See also: Recent months at Montague Island
Date/Time
EDT
Temp
°C
Wind Pressure Rain since
9am
mm
Weather Cloud Vis
km
Sea
Height
m
Swell
Dir  Spd
kts
Gust
kts
hPa Trend Height
m
Period
s
Dir
05/09:00pm 17.1 SSE 13 16 1013.5 - 18.8 Rain - - - - - -
05/08:30pm 16.9 SSE 12 15 1013.1 - 16.8 - - - - - - -
05/08:00pm 17.4 SSE 13 16 1012.5 - 7.6 - - - - - - -
05/07:30pm 18.6 S 16 21 1011.3 - 0.6 - - - - - - -
05/07:00pm 19.5 S 16 21 1011.3 - 0.0 - - - - - - -
05/06:30pm 19.6 SSE 16 21 1010.3 - 0.0 - - - - - - -
05/06:00pm 19.9 SSE 17 21 1010.1 - 0.0 - - - - - - -
05/05:30pm 20.4 SSE 14 17 1009.7 - 0.0 - - - - - - -
05/05:00pm 20.9 SSE 17 19 1008.9 - 0.0 - - - - - - -
05/04:30pm 20.8 SSE 17 20 1008.7 - 0.0 - - - - - - -
05/04:00pm 20.9 SSE 17 21 1008.5 - 0.0 - - - - - - -
05/03:30pm 21.5 SSE 18 21 1008.4 - 0.0 - - - - - - -
05/03:00pm 22.1 SSE 16 19 1008.2 - 0.0 - - - - - - -
05/02:54pm 22.2 SSE 15 20 1008.2 - 0.0 - - - - - - -
05/02:30pm 24.1 E 7 9 1007.4 - 0.0 - - - - - - -
05/02:00pm 23.9 ENE 7 11 1007.2 - 0.0 - - - - - - -
05/01:30pm 23.4 ENE 6 7 1006.6 - 0.0 - - - - - - -
05/01:00pm 24.3 N 7 9 1006.6 - 0.0 - - - - - - -
05/12:30pm 24.8 N 7 9 1006.5 - 0.0 - - - - - - -
05/12:00pm 23.5 N 10 13 1006.6 - 0.0 - - - - - - -
05/11:30am 22.8 N 9 11 1006.7 - 0.0 - - - - - - -
05/11:00am 22.0 N 9 11 1007.0 - 0.0 - - - - - - -
05/10:30am 22.1 N 6 8 1007.2 - 0.0 - - - - - - -
05/10:00am 21.5 NNW 6 8 1007.4 - 0.0 - - - - - - -
05/09:30am 21.2 NNW 8 10 1007.3 - 0.0 - - - - - - -
05/09:00am 21.1 NW 7 8 1007.7 - 1.2 - - - - - - -
05/08:30am 21.0 NNW 6 8 1007.7 - 1.2 - - - - - - -
05/08:00am 20.7 NNW 6 8 1007.9 - 1.2 - - - - - - -
05/07:30am 20.7 NNW 7 8 1008.0 - 1.2 - - - - - - -
05/07:00am 20.6 N 7 9 1007.9 - 1.2 - - - - - - -
05/06:30am 20.6 N 8 10 1007.9 - 1.2 - - - - - - -
05/06:00am 20.7 NNE 8 9 1008.0 - 1.2 - - - - - - -
05/05:30am 20.8 N 6 8 1008.2 - 1.2 - - - - - - -
05/05:00am 21.0 N 7 9 1008.6 - 1.2 - - - - - - -
05/04:30am 20.9 NNE 7 10 1008.1 - 1.2 - - - - - - -
05/04:00am 21.1 NNE 7 9 1008.9 - 0.6 - - - - - - -
05/03:30am 21.1 NNW 5 7 1009.0 - 0.2 - - - - - - -
05/03:00am 21.0 N 6 8 1008.7 - 0.0 - - - - - - -
05/02:30am 20.9 NNW 6 7 1008.8 - 0.0 - - - - - - -
05/02:00am 20.9 NNW 6 9 1009.3 - 0.0 - - - - - - -
05/01:30am 20.9 NNW 7 9 1009.5 - 0.0 - - - - - - -
05/01:00am 21.0 N 8 11 1009.8 - 0.0 - - - - - - -
05/12:30am 21.3 NNE 9 11 1010.2 - 0.0 - - - - - - -
05/12:00am 21.3 NNE 10 12 1010.8 - 0.0 - - - - - - -
 
Date/Time
EDT
Temp
°C
Wind Pressure Rain since
9am
mm
Weather Cloud Vis
km
Sea
Height
m
Swell
Dir  Spd
kts
Gust
kts
hPa Trend Height
m
Period
s
Dir
04/11:30pm 21.4 NNE 8 11 1010.9 - 0.0 - - - - - - -
04/11:00pm 21.3 NNE 9 11 1010.9 - 0.0 - - - - - - -
04/10:30pm 21.3 NNE 8 11 1010.8 - 0.0 - - - - - - -
04/10:00pm 21.4 N 8 11 1011.7 - 0.0 - - - - - - -
04/09:30pm 21.7 N 11 13 1011.3 - 0.0 - - - - - - -
04/09:00pm 21.7 NNE 13 16 1010.6 - 0.0 - - - - - - -
04/08:30pm 21.6 NNE 13 16 1010.6 - 0.0 - - - - - - -
04/08:00pm 21.7 NNE 12 15 1011.0 - 0.0 - - - - - - -
04/07:30pm 21.8 NNE 13 15 1011.1 - 0.0 - - - - - - -
04/07:00pm 21.8 NNE 12 14 1011.0 - 0.0 - - - - - - -
04/06:30pm 21.9 NNE 12 14 1010.7 - 0.0 - - - - - - -
04/06:00pm 22.0 NNE 12 15 1010.7 - 0.0 - - - - - - -
04/05:30pm 21.8 NNE 12 15 1010.5 - 0.0 - - - - - - -
04/05:00pm 22.3 NNE 12 15 1011.0 - 0.0 - - - - - - -
04/04:30pm 22.1 NNE 13 16 1011.1 - 0.0 - - - - - - -
04/04:00pm 22.1 NNE 12 15 1011.4 - 0.0 - - - - - - -
04/03:30pm 22.0 NNE 13 17 1011.8 - 0.0 - - - - - - -
04/03:00pm 22.0 NNE 13 16 1011.9 - 0.0 - - - - - - -
04/02:30pm 22.9 NNE 13 16 1012.0 - 0.0 - - - - - - -
04/02:00pm 23.0 NNE 12 15 1012.3 - 0.0 - - - - - - -
04/01:30pm 22.7 NNE 12 14 1012.7 - 0.0 - - - - - - -
04/01:00pm 23.3 NNE 11 13 1013.1 - 0.0 - - - - - - -
04/12:30pm 22.9 NNE 10 12 1013.4 - 0.0 - - - - - - -
04/12:00pm 22.4 NNE 10 13 1013.5 - 0.0 - - - - - - -
04/11:30am 22.6 NNE 8 10 1013.9 - 0.0 - - - - - - -
04/11:00am 22.1 NNE 9 10 1014.1 - 0.0 - - - - - - -
04/10:30am 21.8 NNE 8 10 1014.5 - 0.0 - - - - - - -
04/10:00am 21.8 NNE 7 9 1015.1 - 0.0 - - - - - - -
04/09:30am 21.2 NNE 7 9 1014.6 - 0.0 - - - - - - -
04/09:00am 21.1 N 6 8 1015.1 - 0.0 - - - - - - -
04/08:30am 20.8 NNW 5 7 1015.5 - 0.0 - - - - - - -
04/08:00am 20.3 NNW 5 7 1015.3 - 0.0 - - - - - - -
04/07:30am 20.0 NNW 6 7 1015.3 - 0.0 - - - - - - -
04/07:00am 19.4 NNW 6 8 1015.3 - 0.0 - - - - - - -
04/06:30am 19.1 NNW 6 8 1015.0 - 0.0 - - - - - - -
04/06:00am 18.9 NNW 6 8 1014.7 - 0.0 - - - - - - -
04/05:30am 19.0 NNW 6 8 1014.8 - 0.0 - - - - - - -
04/05:00am 19.1 NW 6 8 1014.8 - 0.0 - - - - - - -
04/04:30am 19.6 NNW 7 9 1014.7 - 0.0 - - - - - - -
04/04:00am 19.4 N 8 9 1014.7 - 0.0 - - - - - - -
04/03:30am 19.5 N 8 10 1014.9 - 0.0 - - - - - - -
04/03:00am 19.4 NNE 8 10 1015.3 - 0.0 - - - - - - -
04/02:30am 18.8 NNE 7 9 1015.5 - 0.0 - - - - - - -
04/02:00am 18.3 NNE 8 10 1015.9 - 0.0 - - - - - - -
04/01:30am 18.6 NNE 8 11 1016.2 - 0.0 - - - - - - -
04/01:00am 19.2 NNE 8 10 1016.4 - 0.0 - - - - - - -
04/12:30am 19.7 NNE 7 10 1016.4 - 0.0 - - - - - - -
04/12:00am 20.1 NNE 8 10 1016.2 - 0.0 - - - - - - -
 
Date/Time
EDT
Temp
°C
Wind Pressure Rain since
9am
mm
Weather Cloud Vis
km
Sea
Height
m
Swell
Dir  Spd
kts
Gust
kts
hPa Trend Height
m
Period
s
Dir
03/11:30pm 19.9 NNE 8 11 1016.5 - 0.0 - - - - - - -
03/11:00pm 20.1 NE 9 11 1016.4 - 0.0 - - - - - - -
03/10:30pm 20.0 NE 8 10 1016.4 - 0.0 - - - - - - -
03/10:00pm 19.6 NE 6 8 1016.6 - 0.0 - - - - - - -
03/09:30pm 19.2 NE 6 9 1016.4 - 0.0 - - - - - - -
03/09:00pm 19.4 NE 8 10 1016.1 - 0.0 - - - - - - -
03/08:30pm 19.5 NNE 8 10 1016.0 - 0.0 - - - - - - -
03/08:00pm 19.3 NE 7 9 1015.9 - 0.0 - - - - - - -
03/07:30pm 19.5 NE 8 10 1015.5 - 0.0 - - - - - - -
03/07:00pm 19.7 NE 8 11 1015.3 - 0.0 - - - - - - -
03/06:30pm 20.0 ENE 8 10 1014.9 - 0.0 - - - - - - -
03/06:00pm 20.0 ENE 8 10 1014.6 - 0.0 - - - - - - -
03/05:30pm 20.2 ENE 9 11 1014.3 - 0.0 - - - - - - -
03/05:00pm 20.4 NE 7 9 1014.3 - 0.0 - - - - - - -
03/04:30pm 20.7 NE 7 9 1014.5 - 0.0 - - - - - - -
03/04:00pm 20.6 NE 7 9 1014.4 - 0.0 - - - - - - -
03/03:30pm 20.7 NE 6 8 1014.4 - 0.0 - - - - - - -
03/03:00pm 21.1 NE 6 7 1014.5 - 0.0 - - - - - - -
03/02:30pm 21.2 ENE 6 9 1014.8 - 0.0 - - - - - - -
03/02:00pm 20.7 E 5 7 1014.7 - 0.0 - - - - - - -
03/01:30pm 20.0 SE 5 8 1015.0 - 0.0 - - - - - - -
03/01:00pm 20.2 SSE 7 10 1015.3 - 0.0 - - - - - - -
03/12:30pm 20.7 SSW 6 7 1015.8 - 0.0 - - - - - - -
03/12:00pm 19.6 SW 6 7 1016.1 - 0.0 - - - - - - -
03/11:30am 19.4 SSW 6 7 1016.2 - 0.0 - - - - - - -
03/11:00am 19.7 SW 6 8 1016.4 - 0.0 - - - - - - -
03/10:30am 18.9 SSW 6 8 1016.5 - 0.0 - - - - - - -
03/10:00am 18.8 SSW 6 8 1016.5 - 0.0 - - - - - - -
03/09:30am 18.7 SSW 6 7 1016.5 - 0.0 - - - - - - -
03/09:00am 18.3 SW 6 7 1016.5 - 0.0 - - - - - - -
03/08:30am 17.7 SW 6 8 1016.5 - 0.0 - - - - - - -
03/08:00am 17.7 SW 6 7 1016.4 - 0.0 - - - - - - -
03/07:30am 17.3 SW 6 8 1016.0 - 0.0 - - - - - - -
03/07:00am 17.2 SW 7 9 1015.6 - 0.0 - - - - - - -
03/06:30am 17.0 SW 7 9 1015.2 - 0.0 - - - - - - -
03/06:00am 16.9 SSW 7 9 1014.9 - 0.0 - - - - - - -
03/05:30am 16.9 SSW 7 9 1014.6 - 0.0 - - - - - - -
03/05:00am 17.3 S 8 10 1014.2 - 0.0 - - - - - - -
03/04:30am 17.4 SSW 7 10 1014.2 - 0.0 - - - - - - -
03/04:00am 17.4 S 8 10 1014.2 - 0.0 - - - - - - -
03/03:30am 17.3 S 8 9 1014.4 - 0.0 - - - - - - -
03/03:00am 17.4 S 8 10 1014.4 - 0.0 - - - - - - -
03/02:30am 18.0 SSE 8 11 1014.8 - 0.0 - - - - - - -
03/02:00am 18.3 SSE 8 11 1015.0 - 0.0 - - - - - - -
03/01:30am 18.4 SSE 7 9 1015.0 - 0.0 - - - - - - -
03/01:00am 18.5 SSE 8 10 1015.1 - 0.0 - - - - - - -
03/12:30am 18.6 SSE 8 11 1015.2 - 0.0 - - - - - - -
03/12:00am 18.6 S 8 10 1015.3 - 0.0 - - - - - - -
 
Date/Time
EDT
Temp
°C
Wind Pressure Rain since
9am
mm
Weather Cloud Vis
km
Sea
Height
m
Swell
Dir  Spd
kts
Gust
kts
hPa Trend Height
m
Period
s
Dir
02/11:30pm 18.5 SSE 9 11 1015.2 - 0.0 - - - - - - -
02/11:00pm 18.6 SSE 10 12 1015.1 - 0.0 - - - - - - -
02/10:30pm 18.5 SSE 11 13 1015.0 - 0.0 - - - - - - -
02/10:00pm 18.7 SSE 11 13 1014.9 - 0.0 - - - - - - -
02/09:30pm 18.7 SSE 13 16 1014.3 - 0.0 - - - - - - -

Other Formats:

Comma delimited format used in spreadsheet applications
http://www.bom.gov.au/fwo/IDN60701/IDN60701.94939.axf

JavaScript Object Notation format (JSON) in row-major order
http://www.bom.gov.au/fwo/IDN60701/IDN60701.94939.json